sensor_id;sensor_type;location;lat;lon;timestamp;P1;durP1;ratioP1;P2;durP2;ratioP2
76262;SDS011;65080;50.908;6.916;2023-02-27T00:02:23;2.10;;;1.40;;
76262;SDS011;65080;50.908;6.916;2023-02-27T00:04:52;4.23;;;1.63;;
76262;SDS011;65080;50.908;6.916;2023-02-27T00:07:23;2.60;;;1.70;;
76262;SDS011;65080;50.908;6.916;2023-02-27T00:09:53;1.90;;;1.37;;
76262;SDS011;65080;50.908;6.916;2023-02-27T00:12:21;2.23;;;1.23;;
76262;SDS011;65080;50.908;6.916;2023-02-27T00:14:49;3.97;;;1.70;;
76262;SDS011;65080;50.908;6.916;2023-02-27T00:17:17;3.40;;;1.50;;
76262;SDS011;65080;50.908;6.916;2023-02-27T00:19:45;3.13;;;1.80;;
76262;SDS011;65080;50.908;6.916;2023-02-27T00:22:13;2.37;;;1.17;;
76262;SDS011;65080;50.908;6.916;2023-02-27T00:24:41;2.47;;;1.40;;
76262;SDS011;65080;50.908;6.916;2023-02-27T00:27:11;3.63;;;1.30;;
76262;SDS011;65080;50.908;6.916;2023-02-27T00:29:39;1.70;;;1.27;;
76262;SDS011;65080;50.908;6.916;2023-02-27T00:32:07;4.10;;;1.60;;
76262;SDS011;65080;50.908;6.916;2023-02-27T00:34:36;2.60;;;1.50;;
76262;SDS011;65080;50.908;6.916;2023-02-27T00:37:04;2.97;;;1.40;;
76262;SDS011;65080;50.908;6.916;2023-02-27T00:39:33;1.77;;;1.57;;
76262;SDS011;65080;50.908;6.916;2023-02-27T00:42:02;2.00;;;1.27;;
76262;SDS011;65080;50.908;6.916;2023-02-27T00:44:31;2.00;;;1.10;;
76262;SDS011;65080;50.908;6.916;2023-02-27T00:46:59;3.30;;;1.70;;
76262;SDS011;65080;50.908;6.916;2023-02-27T00:49:28;2.17;;;1.30;;
76262;SDS011;65080;50.908;6.916;2023-02-27T00:51:56;5.27;;;1.60;;
76262;SDS011;65080;50.908;6.916;2023-02-27T00:54:24;2.27;;;1.53;;
76262;SDS011;65080;50.908;6.916;2023-02-27T00:56:52;3.53;;;1.40;;
76262;SDS011;65080;50.908;6.916;2023-02-27T00:59:20;2.33;;;1.20;;
76262;SDS011;65080;50.908;6.916;2023-02-27T01:01:50;3.93;;;1.50;;
76262;SDS011;65080;50.908;6.916;2023-02-27T01:04:18;2.23;;;1.50;;
76262;SDS011;65080;50.908;6.916;2023-02-27T01:06:47;4.63;;;1.50;;
76262;SDS011;65080;50.908;6.916;2023-02-27T01:09:15;2.43;;;1.30;;
76262;SDS011;65080;50.908;6.916;2023-02-27T01:11:43;2.73;;;1.27;;
76262;SDS011;65080;50.908;6.916;2023-02-27T01:14:11;2.53;;;1.30;;
76262;SDS011;65080;50.908;6.916;2023-02-27T01:16:40;1.93;;;1.27;;
76262;SDS011;65080;50.908;6.916;2023-02-27T01:19:10;4.93;;;1.90;;
76262;SDS011;65080;50.908;6.916;2023-02-27T01:21:38;3.23;;;1.20;;
76262;SDS011;65080;50.908;6.916;2023-02-27T01:24:07;4.13;;;1.50;;
76262;SDS011;65080;50.908;6.916;2023-02-27T01:26:36;4.87;;;1.60;;
76262;SDS011;65080;50.908;6.916;2023-02-27T01:29:04;4.97;;;1.33;;
76262;SDS011;65080;50.908;6.916;2023-02-27T01:31:32;4.00;;;1.90;;
76262;SDS011;65080;50.908;6.916;2023-02-27T01:34:01;3.27;;;1.50;;
76262;SDS011;65080;50.908;6.916;2023-02-27T01:36:30;3.30;;;1.53;;
76262;SDS011;65080;50.908;6.916;2023-02-27T01:38:58;2.57;;;1.33;;
76262;SDS011;65080;50.908;6.916;2023-02-27T01:41:27;2.97;;;1.60;;
76262;SDS011;65080;50.908;6.916;2023-02-27T01:43:56;3.33;;;1.53;;
76262;SDS011;65080;50.908;6.916;2023-02-27T01:46:25;3.07;;;1.13;;
76262;SDS011;65080;50.908;6.916;2023-02-27T01:48:55;4.27;;;1.20;;
76262;SDS011;65080;50.908;6.916;2023-02-27T01:51:27;2.57;;;1.57;;
76262;SDS011;65080;50.908;6.916;2023-02-27T01:54:00;3.27;;;1.00;;
76262;SDS011;65080;50.908;6.916;2023-02-27T01:56:30;4.60;;;1.43;;
76262;SDS011;65080;50.908;6.916;2023-02-27T01:59:00;2.87;;;1.47;;
76262;SDS011;65080;50.908;6.916;2023-02-27T02:01:31;3.57;;;1.33;;
76262;SDS011;65080;50.908;6.916;2023-02-27T02:04:02;4.77;;;1.00;;
76262;SDS011;65080;50.908;6.916;2023-02-27T02:06:36;3.10;;;1.53;;
76262;SDS011;65080;50.908;6.916;2023-02-27T02:09:07;2.43;;;1.57;;
76262;SDS011;65080;50.908;6.916;2023-02-27T02:11:37;4.03;;;1.60;;
76262;SDS011;65080;50.908;6.916;2023-02-27T02:14:06;1.40;;;1.30;;
76262;SDS011;65080;50.908;6.916;2023-02-27T02:16:39;1.73;;;1.33;;
76262;SDS011;65080;50.908;6.916;2023-02-27T02:19:30;2.87;;;1.20;;
76262;SDS011;65080;50.908;6.916;2023-02-27T02:22:28;2.40;;;1.37;;
76262;SDS011;65080;50.908;6.916;2023-02-27T02:25:29;2.57;;;1.50;;
76262;SDS011;65080;50.908;6.916;2023-02-27T02:28:35;2.00;;;1.20;;
76262;SDS011;65080;50.908;6.916;2023-02-27T02:31:26;2.87;;;1.60;;
76262;SDS011;65080;50.908;6.916;2023-02-27T02:34:20;2.93;;;1.70;;
76262;SDS011;65080;50.908;6.916;2023-02-27T02:37:36;2.73;;;1.50;;
76262;SDS011;65080;50.908;6.916;2023-02-27T02:40:26;3.70;;;1.43;;
76262;SDS011;65080;50.908;6.916;2023-02-27T02:43:03;3.23;;;1.80;;
76262;SDS011;65080;50.908;6.916;2023-02-27T02:45:39;1.33;;;1.00;;
76262;SDS011;65080;50.908;6.916;2023-02-27T02:48:15;1.90;;;1.20;;
76262;SDS011;65080;50.908;6.916;2023-02-27T02:50:49;1.73;;;1.20;;
76262;SDS011;65080;50.908;6.916;2023-02-27T02:53:25;5.00;;;1.67;;
76262;SDS011;65080;50.908;6.916;2023-02-27T02:56:04;2.90;;;1.40;;
76262;SDS011;65080;50.908;6.916;2023-02-27T02:58:38;2.83;;;1.77;;
76262;SDS011;65080;50.908;6.916;2023-02-27T03:01:14;4.83;;;1.70;;
76262;SDS011;65080;50.908;6.916;2023-02-27T03:03:44;3.50;;;1.33;;
76262;SDS011;65080;50.908;6.916;2023-02-27T03:06:17;3.17;;;1.37;;
76262;SDS011;65080;50.908;6.916;2023-02-27T03:08:50;4.23;;;1.73;;
76262;SDS011;65080;50.908;6.916;2023-02-27T03:11:22;2.23;;;1.50;;
76262;SDS011;65080;50.908;6.916;2023-02-27T03:13:55;2.03;;;1.37;;
76262;SDS011;65080;50.908;6.916;2023-02-27T03:16:28;7.50;;;1.50;;
76262;SDS011;65080;50.908;6.916;2023-02-27T03:19:02;3.40;;;1.70;;
76262;SDS011;65080;50.908;6.916;2023-02-27T03:21:37;2.77;;;1.50;;
76262;SDS011;65080;50.908;6.916;2023-02-27T03:24:12;2.83;;;1.30;;
76262;SDS011;65080;50.908;6.916;2023-02-27T03:26:47;2.10;;;1.30;;
76262;SDS011;65080;50.908;6.916;2023-02-27T03:29:19;6.63;;;1.60;;
76262;SDS011;65080;50.908;6.916;2023-02-27T03:31:54;3.20;;;1.70;;
76262;SDS011;65080;50.908;6.916;2023-02-27T03:34:26;4.30;;;2.00;;
76262;SDS011;65080;50.908;6.916;2023-02-27T03:36:59;2.90;;;1.80;;
76262;SDS011;65080;50.908;6.916;2023-02-27T03:39:34;3.50;;;1.37;;
76262;SDS011;65080;50.908;6.916;2023-02-27T03:42:10;4.07;;;1.70;;
76262;SDS011;65080;50.908;6.916;2023-02-27T03:44:46;2.30;;;1.73;;
76262;SDS011;65080;50.908;6.916;2023-02-27T03:47:21;3.53;;;1.60;;
76262;SDS011;65080;50.908;6.916;2023-02-27T03:49:49;3.10;;;1.73;;
76262;SDS011;65080;50.908;6.916;2023-02-27T03:52:18;2.20;;;1.40;;
76262;SDS011;65080;50.908;6.916;2023-02-27T03:54:49;5.80;;;1.20;;
76262;SDS011;65080;50.908;6.916;2023-02-27T03:57:23;4.07;;;1.70;;
76262;SDS011;65080;50.908;6.916;2023-02-27T03:59:52;3.67;;;1.20;;
76262;SDS011;65080;50.908;6.916;2023-02-27T04:02:20;2.90;;;1.33;;
76262;SDS011;65080;50.908;6.916;2023-02-27T04:04:49;1.90;;;1.20;;
76262;SDS011;65080;50.908;6.916;2023-02-27T04:07:21;4.77;;;1.67;;
76262;SDS011;65080;50.908;6.916;2023-02-27T04:10:03;4.70;;;1.23;;
76262;SDS011;65080;50.908;6.916;2023-02-27T04:16:02;3.40;;;1.50;;
76262;SDS011;65080;50.908;6.916;2023-02-27T04:18:50;2.00;;;1.20;;
76262;SDS011;65080;50.908;6.916;2023-02-27T04:21:31;2.47;;;1.27;;
76262;SDS011;65080;50.908;6.916;2023-02-27T04:24:06;2.97;;;1.67;;
76262;SDS011;65080;50.908;6.916;2023-02-27T04:26:41;4.17;;;2.20;;
76262;SDS011;65080;50.908;6.916;2023-02-27T04:29:15;3.70;;;1.80;;
76262;SDS011;65080;50.908;6.916;2023-02-27T04:31:48;4.07;;;1.43;;
76262;SDS011;65080;50.908;6.916;2023-02-27T04:34:22;3.83;;;1.67;;
76262;SDS011;65080;50.908;6.916;2023-02-27T04:36:56;2.40;;;1.40;;
76262;SDS011;65080;50.908;6.916;2023-02-27T04:39:27;3.20;;;1.60;;
76262;SDS011;65080;50.908;6.916;2023-02-27T04:42:01;2.23;;;1.30;;
76262;SDS011;65080;50.908;6.916;2023-02-27T04:44:33;3.07;;;1.90;;
76262;SDS011;65080;50.908;6.916;2023-02-27T04:47:05;2.90;;;1.30;;
76262;SDS011;65080;50.908;6.916;2023-02-27T04:49:37;3.33;;;1.70;;
76262;SDS011;65080;50.908;6.916;2023-02-27T04:52:09;3.73;;;1.70;;
76262;SDS011;65080;50.908;6.916;2023-02-27T04:54:42;3.53;;;1.50;;
76262;SDS011;65080;50.908;6.916;2023-02-27T04:57:14;2.53;;;1.60;;
76262;SDS011;65080;50.908;6.916;2023-02-27T04:59:47;2.87;;;1.60;;
76262;SDS011;65080;50.908;6.916;2023-02-27T05:02:22;5.70;;;1.87;;
76262;SDS011;65080;50.908;6.916;2023-02-27T05:04:55;4.37;;;1.73;;
76262;SDS011;65080;50.908;6.916;2023-02-27T05:07:28;2.23;;;1.50;;
76262;SDS011;65080;50.908;6.916;2023-02-27T05:10:02;3.73;;;1.53;;
76262;SDS011;65080;50.908;6.916;2023-02-27T05:12:32;4.30;;;1.50;;
76262;SDS011;65080;50.908;6.916;2023-02-27T05:15:08;2.90;;;1.80;;
76262;SDS011;65080;50.908;6.916;2023-02-27T05:17:43;2.97;;;1.70;;
76262;SDS011;65080;50.908;6.916;2023-02-27T05:20:14;2.70;;;1.60;;
76262;SDS011;65080;50.908;6.916;2023-02-27T05:22:45;4.70;;;1.80;;
76262;SDS011;65080;50.908;6.916;2023-02-27T05:25:18;1.60;;;1.50;;
76262;SDS011;65080;50.908;6.916;2023-02-27T05:27:51;3.00;;;1.67;;
76262;SDS011;65080;50.908;6.916;2023-02-27T05:30:25;4.80;;;1.80;;
76262;SDS011;65080;50.908;6.916;2023-02-27T05:33:01;3.10;;;1.70;;
76262;SDS011;65080;50.908;6.916;2023-02-27T05:35:33;3.23;;;1.80;;
76262;SDS011;65080;50.908;6.916;2023-02-27T05:38:10;2.30;;;1.80;;
76262;SDS011;65080;50.908;6.916;2023-02-27T05:40:43;3.43;;;1.80;;
76262;SDS011;65080;50.908;6.916;2023-02-27T05:43:15;3.17;;;1.73;;
76262;SDS011;65080;50.908;6.916;2023-02-27T05:45:47;3.90;;;1.47;;
76262;SDS011;65080;50.908;6.916;2023-02-27T05:48:22;3.40;;;1.87;;
76262;SDS011;65080;50.908;6.916;2023-02-27T05:50:53;2.10;;;1.30;;
76262;SDS011;65080;50.908;6.916;2023-02-27T05:53:23;2.70;;;1.83;;
76262;SDS011;65080;50.908;6.916;2023-02-27T05:55:58;2.40;;;2.00;;
76262;SDS011;65080;50.908;6.916;2023-02-27T05:58:28;5.23;;;2.73;;
76262;SDS011;65080;50.908;6.916;2023-02-27T06:01:02;4.43;;;2.83;;
76262;SDS011;65080;50.908;6.916;2023-02-27T06:03:34;3.77;;;1.97;;
76262;SDS011;65080;50.908;6.916;2023-02-27T06:06:04;4.10;;;2.10;;
76262;SDS011;65080;50.908;6.916;2023-02-27T06:08:34;2.67;;;1.60;;
76262;SDS011;65080;50.908;6.916;2023-02-27T06:11:02;6.10;;;2.10;;
76262;SDS011;65080;50.908;6.916;2023-02-27T06:13:31;3.83;;;2.03;;
76262;SDS011;65080;50.908;6.916;2023-02-27T06:15:59;6.33;;;2.37;;
76262;SDS011;65080;50.908;6.916;2023-02-27T06:18:27;2.90;;;1.93;;
76262;SDS011;65080;50.908;6.916;2023-02-27T06:20:57;3.20;;;2.10;;
76262;SDS011;65080;50.908;6.916;2023-02-27T06:23:25;7.60;;;2.30;;
76262;SDS011;65080;50.908;6.916;2023-02-27T06:25:53;8.80;;;2.67;;
76262;SDS011;65080;50.908;6.916;2023-02-27T06:28:22;5.50;;;2.57;;
76262;SDS011;65080;50.908;6.916;2023-02-27T06:30:51;5.57;;;2.60;;
76262;SDS011;65080;50.908;6.916;2023-02-27T06:33:20;4.13;;;2.30;;
76262;SDS011;65080;50.908;6.916;2023-02-27T06:35:49;2.80;;;2.20;;
76262;SDS011;65080;50.908;6.916;2023-02-27T06:38:19;5.90;;;2.43;;
76262;SDS011;65080;50.908;6.916;2023-02-27T06:40:49;7.90;;;3.03;;
76262;SDS011;65080;50.908;6.916;2023-02-27T06:43:17;4.10;;;3.00;;
76262;SDS011;65080;50.908;6.916;2023-02-27T06:45:48;10.47;;;3.17;;
76262;SDS011;65080;50.908;6.916;2023-02-27T06:48:16;5.30;;;2.63;;
76262;SDS011;65080;50.908;6.916;2023-02-27T06:50:44;5.73;;;2.97;;
76262;SDS011;65080;50.908;6.916;2023-02-27T06:53:12;4.07;;;2.90;;
76262;SDS011;65080;50.908;6.916;2023-02-27T06:55:42;5.70;;;2.70;;
76262;SDS011;65080;50.908;6.916;2023-02-27T06:58:10;6.90;;;3.20;;
76262;SDS011;65080;50.908;6.916;2023-02-27T07:00:38;5.00;;;3.00;;
76262;SDS011;65080;50.908;6.916;2023-02-27T07:03:07;5.20;;;2.50;;
76262;SDS011;65080;50.908;6.916;2023-02-27T07:05:35;3.50;;;2.63;;
76262;SDS011;65080;50.908;6.916;2023-02-27T07:08:03;3.33;;;2.10;;
76262;SDS011;65080;50.908;6.916;2023-02-27T07:10:31;4.40;;;2.53;;
76262;SDS011;65080;50.908;6.916;2023-02-27T07:13:01;3.73;;;2.63;;
76262;SDS011;65080;50.908;6.916;2023-02-27T07:15:29;6.30;;;2.70;;
76262;SDS011;65080;50.908;6.916;2023-02-27T07:17:58;5.13;;;2.73;;
76262;SDS011;65080;50.908;6.916;2023-02-27T07:20:26;4.53;;;2.80;;
76262;SDS011;65080;50.908;6.916;2023-02-27T07:22:54;4.20;;;2.43;;
76262;SDS011;65080;50.908;6.916;2023-02-27T07:25:22;5.10;;;2.97;;
76262;SDS011;65080;50.908;6.916;2023-02-27T07:27:50;2.80;;;2.33;;
76262;SDS011;65080;50.908;6.916;2023-02-27T07:30:20;3.07;;;2.07;;
76262;SDS011;65080;50.908;6.916;2023-02-27T07:32:48;5.40;;;2.10;;
76262;SDS011;65080;50.908;6.916;2023-02-27T07:35:17;2.90;;;1.87;;
76262;SDS011;65080;50.908;6.916;2023-02-27T07:37:45;3.33;;;1.90;;
76262;SDS011;65080;50.908;6.916;2023-02-27T07:40:13;2.87;;;1.80;;
76262;SDS011;65080;50.908;6.916;2023-02-27T07:42:42;5.97;;;2.13;;
76262;SDS011;65080;50.908;6.916;2023-02-27T07:45:10;4.60;;;1.80;;
76262;SDS011;65080;50.908;6.916;2023-02-27T07:47:40;5.47;;;1.80;;
76262;SDS011;65080;50.908;6.916;2023-02-27T07:50:08;3.33;;;1.97;;
76262;SDS011;65080;50.908;6.916;2023-02-27T07:52:39;7.13;;;2.13;;
76262;SDS011;65080;50.908;6.916;2023-02-27T07:55:07;4.20;;;2.10;;
76262;SDS011;65080;50.908;6.916;2023-02-27T07:57:37;2.20;;;1.40;;
76262;SDS011;65080;50.908;6.916;2023-02-27T08:00:06;1.90;;;1.53;;
76262;SDS011;65080;50.908;6.916;2023-02-27T08:02:35;3.03;;;1.70;;
76262;SDS011;65080;50.908;6.916;2023-02-27T08:05:06;2.53;;;1.73;;
76262;SDS011;65080;50.908;6.916;2023-02-27T08:07:34;1.83;;;1.40;;
76262;SDS011;65080;50.908;6.916;2023-02-27T08:10:03;5.50;;;1.97;;
76262;SDS011;65080;50.908;6.916;2023-02-27T08:12:31;2.23;;;1.40;;
76262;SDS011;65080;50.908;6.916;2023-02-27T08:15:00;3.57;;;1.93;;
76262;SDS011;65080;50.908;6.916;2023-02-27T08:17:28;5.23;;;1.60;;
76262;SDS011;65080;50.908;6.916;2023-02-27T08:19:56;3.90;;;1.50;;
76262;SDS011;65080;50.908;6.916;2023-02-27T08:22:26;4.30;;;1.43;;
76262;SDS011;65080;50.908;6.916;2023-02-27T08:24:54;2.50;;;1.40;;
76262;SDS011;65080;50.908;6.916;2023-02-27T08:27:23;2.73;;;1.30;;
76262;SDS011;65080;50.908;6.916;2023-02-27T08:29:51;2.50;;;1.30;;
76262;SDS011;65080;50.908;6.916;2023-02-27T08:32:19;3.83;;;1.50;;
76262;SDS011;65080;50.908;6.916;2023-02-27T08:34:48;3.83;;;1.40;;
76262;SDS011;65080;50.908;6.916;2023-02-27T08:37:16;3.43;;;1.13;;
76262;SDS011;65080;50.908;6.916;2023-02-27T08:39:46;3.00;;;1.40;;
76262;SDS011;65080;50.908;6.916;2023-02-27T08:42:15;3.37;;;1.23;;
76262;SDS011;65080;50.908;6.916;2023-02-27T08:44:43;1.00;;;0.90;;
76262;SDS011;65080;50.908;6.916;2023-02-27T08:47:11;2.63;;;1.20;;
76262;SDS011;65080;50.908;6.916;2023-02-27T08:49:40;2.60;;;1.10;;
76262;SDS011;65080;50.908;6.916;2023-02-27T08:52:08;2.30;;;1.53;;
76262;SDS011;65080;50.908;6.916;2023-02-27T08:54:36;3.90;;;1.70;;
76262;SDS011;65080;50.908;6.916;2023-02-27T08:57:06;3.10;;;1.10;;
76262;SDS011;65080;50.908;6.916;2023-02-27T08:59:34;2.80;;;1.17;;
76262;SDS011;65080;50.908;6.916;2023-02-27T09:02:03;2.03;;;1.40;;
76262;SDS011;65080;50.908;6.916;2023-02-27T09:04:31;2.30;;;1.50;;
76262;SDS011;65080;50.908;6.916;2023-02-27T09:07:00;2.00;;;0.90;;
76262;SDS011;65080;50.908;6.916;2023-02-27T09:09:28;1.53;;;1.07;;
76262;SDS011;65080;50.908;6.916;2023-02-27T09:11:57;1.80;;;1.03;;
76262;SDS011;65080;50.908;6.916;2023-02-27T09:14:26;3.30;;;1.20;;
76262;SDS011;65080;50.908;6.916;2023-02-27T09:16:55;4.40;;;1.50;;
76262;SDS011;65080;50.908;6.916;2023-02-27T09:19:23;2.13;;;0.90;;
76262;SDS011;65080;50.908;6.916;2023-02-27T09:21:52;4.47;;;1.80;;
76262;SDS011;65080;50.908;6.916;2023-02-27T09:24:20;1.43;;;1.10;;
76262;SDS011;65080;50.908;6.916;2023-02-27T09:26:48;1.40;;;1.23;;
76262;SDS011;65080;50.908;6.916;2023-02-27T09:29:18;1.53;;;1.30;;
76262;SDS011;65080;50.908;6.916;2023-02-27T09:31:48;2.70;;;1.20;;
76262;SDS011;65080;50.908;6.916;2023-02-27T09:34:17;1.93;;;1.23;;
76262;SDS011;65080;50.908;6.916;2023-02-27T09:36:45;2.80;;;1.30;;
76262;SDS011;65080;50.908;6.916;2023-02-27T09:39:14;1.60;;;1.33;;
76262;SDS011;65080;50.908;6.916;2023-02-27T09:41:47;5.90;;;1.03;;
76262;SDS011;65080;50.908;6.916;2023-02-27T09:44:31;2.77;;;1.50;;
76262;SDS011;65080;50.908;6.916;2023-02-27T09:47:18;1.77;;;1.10;;
76262;SDS011;65080;50.908;6.916;2023-02-27T09:49:54;1.73;;;1.00;;
76262;SDS011;65080;50.908;6.916;2023-02-27T09:52:26;1.63;;;0.93;;
76262;SDS011;65080;50.908;6.916;2023-02-27T09:54:56;4.40;;;1.40;;
76262;SDS011;65080;50.908;6.916;2023-02-27T09:57:28;2.40;;;1.40;;
76262;SDS011;65080;50.908;6.916;2023-02-27T10:00:06;2.50;;;1.40;;
76262;SDS011;65080;50.908;6.916;2023-02-27T10:02:48;2.10;;;1.37;;
76262;SDS011;65080;50.908;6.916;2023-02-27T10:05:25;3.37;;;1.80;;
76262;SDS011;65080;50.908;6.916;2023-02-27T10:08:02;3.20;;;1.50;;
76262;SDS011;65080;50.908;6.916;2023-02-27T10:10:38;2.90;;;1.30;;
76262;SDS011;65080;50.908;6.916;2023-02-27T10:13:19;1.30;;;0.93;;
76262;SDS011;65080;50.908;6.916;2023-02-27T10:15:57;2.07;;;1.00;;
76262;SDS011;65080;50.908;6.916;2023-02-27T10:18:29;1.47;;;1.00;;
76262;SDS011;65080;50.908;6.916;2023-02-27T10:21:00;2.47;;;1.20;;
76262;SDS011;65080;50.908;6.916;2023-02-27T10:23:35;1.10;;;1.00;;
76262;SDS011;65080;50.908;6.916;2023-02-27T10:26:10;2.40;;;1.30;;
76262;SDS011;65080;50.908;6.916;2023-02-27T10:28:44;2.63;;;0.93;;
76262;SDS011;65080;50.908;6.916;2023-02-27T10:31:13;1.17;;;1.00;;
76262;SDS011;65080;50.908;6.916;2023-02-27T10:33:51;3.63;;;1.40;;
76262;SDS011;65080;50.908;6.916;2023-02-27T10:36:19;1.30;;;0.90;;
76262;SDS011;65080;50.908;6.916;2023-02-27T10:38:59;0.97;;;0.80;;
76262;SDS011;65080;50.908;6.916;2023-02-27T10:41:31;6.10;;;1.50;;
76262;SDS011;65080;50.908;6.916;2023-02-27T10:44:01;1.13;;;0.80;;
76262;SDS011;65080;50.908;6.916;2023-02-27T10:46:31;2.80;;;1.20;;
76262;SDS011;65080;50.908;6.916;2023-02-27T10:49:05;4.53;;;1.00;;
76262;SDS011;65080;50.908;6.916;2023-02-27T10:51:44;2.63;;;1.00;;
76262;SDS011;65080;50.908;6.916;2023-02-27T10:54:15;0.90;;;0.50;;
76262;SDS011;65080;50.908;6.916;2023-02-27T10:56:47;3.80;;;1.07;;
76262;SDS011;65080;50.908;6.916;2023-02-27T10:59:18;0.83;;;0.70;;
76262;SDS011;65080;50.908;6.916;2023-02-27T11:01:50;1.00;;;0.63;;
76262;SDS011;65080;50.908;6.916;2023-02-27T11:04:26;1.53;;;0.50;;
76262;SDS011;65080;50.908;6.916;2023-02-27T11:06:59;1.67;;;0.93;;
76262;SDS011;65080;50.908;6.916;2023-02-27T11:09:30;1.27;;;0.70;;
76262;SDS011;65080;50.908;6.916;2023-02-27T11:12:10;1.43;;;1.33;;
76262;SDS011;65080;50.908;6.916;2023-02-27T11:14:49;1.10;;;0.70;;
76262;SDS011;65080;50.908;6.916;2023-02-27T11:17:23;2.33;;;1.50;;
76262;SDS011;65080;50.908;6.916;2023-02-27T11:19:56;2.10;;;1.27;;
76262;SDS011;65080;50.908;6.916;2023-02-27T11:22:25;1.00;;;0.60;;
76262;SDS011;65080;50.908;6.916;2023-02-27T11:25:16;1.83;;;0.70;;
76262;SDS011;65080;50.908;6.916;2023-02-27T11:27:47;1.10;;;0.50;;
76262;SDS011;65080;50.908;6.916;2023-02-27T11:30:27;0.97;;;0.60;;
76262;SDS011;65080;50.908;6.916;2023-02-27T11:32:58;1.33;;;0.50;;
76262;SDS011;65080;50.908;6.916;2023-02-27T11:35:30;3.80;;;0.83;;
76262;SDS011;65080;50.908;6.916;2023-02-27T11:38:00;0.70;;;0.50;;
76262;SDS011;65080;50.908;6.916;2023-02-27T11:40:32;6.37;;;0.90;;
76262;SDS011;65080;50.908;6.916;2023-02-27T11:43:04;1.23;;;0.87;;
76262;SDS011;65080;50.908;6.916;2023-02-27T11:45:52;1.33;;;0.60;;
76262;SDS011;65080;50.908;6.916;2023-02-27T11:48:45;2.20;;;0.60;;
76262;SDS011;65080;50.908;6.916;2023-02-27T11:51:45;0.70;;;0.60;;
76262;SDS011;65080;50.908;6.916;2023-02-27T11:54:29;0.77;;;0.50;;
76262;SDS011;65080;50.908;6.916;2023-02-27T11:57:07;1.90;;;0.83;;
76262;SDS011;65080;50.908;6.916;2023-02-27T11:59:45;1.20;;;0.90;;
76262;SDS011;65080;50.908;6.916;2023-02-27T12:02:19;1.50;;;0.83;;
76262;SDS011;65080;50.908;6.916;2023-02-27T12:04:56;2.17;;;0.90;;
76262;SDS011;65080;50.908;6.916;2023-02-27T12:07:31;2.00;;;0.83;;
76262;SDS011;65080;50.908;6.916;2023-02-27T12:10:05;1.10;;;0.60;;
76262;SDS011;65080;50.908;6.916;2023-02-27T12:12:41;1.93;;;0.70;;
76262;SDS011;65080;50.908;6.916;2023-02-27T12:15:18;1.20;;;0.80;;
76262;SDS011;65080;50.908;6.916;2023-02-27T12:17:54;2.93;;;1.37;;
76262;SDS011;65080;50.908;6.916;2023-02-27T12:20:32;1.20;;;0.70;;
76262;SDS011;65080;50.908;6.916;2023-02-27T12:23:09;1.87;;;0.90;;
76262;SDS011;65080;50.908;6.916;2023-02-27T12:25:45;2.30;;;0.90;;
76262;SDS011;65080;50.908;6.916;2023-02-27T12:28:21;1.57;;;0.90;;
76262;SDS011;65080;50.908;6.916;2023-02-27T12:31:03;2.70;;;0.93;;
76262;SDS011;65080;50.908;6.916;2023-02-27T12:33:44;2.60;;;0.70;;
76262;SDS011;65080;50.908;6.916;2023-02-27T12:36:16;1.87;;;0.80;;
76262;SDS011;65080;50.908;6.916;2023-02-27T12:38:46;1.30;;;0.70;;
76262;SDS011;65080;50.908;6.916;2023-02-27T12:41:18;1.50;;;1.10;;
76262;SDS011;65080;50.908;6.916;2023-02-27T12:44:02;1.87;;;0.70;;
76262;SDS011;65080;50.908;6.916;2023-02-27T12:46:49;4.20;;;2.30;;
76262;SDS011;65080;50.908;6.916;2023-02-27T12:49:27;2.13;;;1.07;;
76262;SDS011;65080;50.908;6.916;2023-02-27T12:52:07;1.50;;;0.97;;
76262;SDS011;65080;50.908;6.916;2023-02-27T12:54:49;1.80;;;0.77;;
76262;SDS011;65080;50.908;6.916;2023-02-27T13:00:25;1.77;;;1.07;;
76262;SDS011;65080;50.908;6.916;2023-02-27T13:02:57;1.30;;;0.80;;
76262;SDS011;65080;50.908;6.916;2023-02-27T13:05:35;2.70;;;0.80;;
76262;SDS011;65080;50.908;6.916;2023-02-27T13:08:13;1.40;;;0.60;;
76262;SDS011;65080;50.908;6.916;2023-02-27T13:11:03;2.50;;;0.73;;
76262;SDS011;65080;50.908;6.916;2023-02-27T13:13:39;1.30;;;0.80;;
76262;SDS011;65080;50.908;6.916;2023-02-27T13:16:12;3.57;;;1.00;;
76262;SDS011;65080;50.908;6.916;2023-02-27T13:18:46;2.00;;;0.90;;
76262;SDS011;65080;50.908;6.916;2023-02-27T13:21:18;2.87;;;1.20;;
76262;SDS011;65080;50.908;6.916;2023-02-27T13:23:55;2.30;;;1.33;;
76262;SDS011;65080;50.908;6.916;2023-02-27T13:26:34;1.20;;;0.70;;
76262;SDS011;65080;50.908;6.916;2023-02-27T13:29:05;3.90;;;0.83;;
76262;SDS011;65080;50.908;6.916;2023-02-27T13:31:41;3.23;;;0.80;;
76262;SDS011;65080;50.908;6.916;2023-02-27T13:34:19;1.60;;;0.90;;
76262;SDS011;65080;50.908;6.916;2023-02-27T13:36:54;1.60;;;0.73;;
76262;SDS011;65080;50.908;6.916;2023-02-27T13:39:37;2.73;;;0.80;;
76262;SDS011;65080;50.908;6.916;2023-02-27T13:54:17;1.20;;;0.70;;
76262;SDS011;65080;50.908;6.916;2023-02-27T13:57:04;0.80;;;0.60;;
76262;SDS011;65080;50.908;6.916;2023-02-27T13:59:37;1.53;;;0.70;;
76262;SDS011;65080;50.908;6.916;2023-02-27T14:02:25;1.03;;;0.70;;
76262;SDS011;65080;50.908;6.916;2023-02-27T14:05:02;1.77;;;0.70;;
76262;SDS011;65080;50.908;6.916;2023-02-27T14:07:33;4.37;;;0.93;;
76262;SDS011;65080;50.908;6.916;2023-02-27T14:10:19;1.00;;;0.90;;
76262;SDS011;65080;50.908;6.916;2023-02-27T14:12:49;1.33;;;0.70;;
76262;SDS011;65080;50.908;6.916;2023-02-27T14:24:22;3.37;;;1.43;;
76262;SDS011;65080;50.908;6.916;2023-02-27T14:26:53;2.67;;;1.03;;
76262;SDS011;65080;50.908;6.916;2023-02-27T14:29:23;2.93;;;1.40;;
76262;SDS011;65080;50.908;6.916;2023-02-27T14:31:58;1.87;;;0.83;;
76262;SDS011;65080;50.908;6.916;2023-02-27T14:34:29;1.87;;;0.70;;
76262;SDS011;65080;50.908;6.916;2023-02-27T14:36:58;2.37;;;1.00;;
76262;SDS011;65080;50.908;6.916;2023-02-27T14:39:29;2.53;;;0.83;;
76262;SDS011;65080;50.908;6.916;2023-02-27T14:42:04;4.20;;;1.20;;
76262;SDS011;65080;50.908;6.916;2023-02-27T14:44:53;0.80;;;0.60;;
76262;SDS011;65080;50.908;6.916;2023-02-27T14:47:25;1.50;;;0.63;;
76262;SDS011;65080;50.908;6.916;2023-02-27T14:49:57;1.47;;;0.60;;
76262;SDS011;65080;50.908;6.916;2023-02-27T14:52:28;1.20;;;0.60;;
76262;SDS011;65080;50.908;6.916;2023-02-27T14:55:05;1.57;;;0.73;;
76262;SDS011;65080;50.908;6.916;2023-02-27T14:57:51;2.37;;;0.87;;
76262;SDS011;65080;50.908;6.916;2023-02-27T15:00:28;1.90;;;0.80;;
76262;SDS011;65080;50.908;6.916;2023-02-27T15:03:11;3.20;;;1.00;;
76262;SDS011;65080;50.908;6.916;2023-02-27T15:05:46;0.73;;;0.50;;
76262;SDS011;65080;50.908;6.916;2023-02-27T15:08:16;3.23;;;0.80;;
76262;SDS011;65080;50.908;6.916;2023-02-27T15:10:47;2.43;;;1.77;;
76262;SDS011;65080;50.908;6.916;2023-02-27T15:13:20;3.37;;;1.00;;
76262;SDS011;65080;50.908;6.916;2023-02-27T15:15:53;2.33;;;0.90;;
76262;SDS011;65080;50.908;6.916;2023-02-27T15:19:05;2.60;;;1.30;;
76262;SDS011;65080;50.908;6.916;2023-02-27T15:21:41;2.87;;;1.20;;
76262;SDS011;65080;50.908;6.916;2023-02-27T15:24:19;3.20;;;1.17;;
76262;SDS011;65080;50.908;6.916;2023-02-27T15:26:56;3.03;;;1.13;;
76262;SDS011;65080;50.908;6.916;2023-02-27T15:29:28;2.77;;;1.17;;
76262;SDS011;65080;50.908;6.916;2023-02-27T15:32:01;4.27;;;0.80;;
76262;SDS011;65080;50.908;6.916;2023-02-27T15:34:31;2.90;;;0.90;;
76262;SDS011;65080;50.908;6.916;2023-02-27T15:37:02;5.20;;;1.13;;
76262;SDS011;65080;50.908;6.916;2023-02-27T15:39:33;2.77;;;1.00;;
76262;SDS011;65080;50.908;6.916;2023-02-27T15:42:03;1.77;;;1.00;;
76262;SDS011;65080;50.908;6.916;2023-02-27T15:44:34;3.10;;;1.50;;
76262;SDS011;65080;50.908;6.916;2023-02-27T15:47:06;3.87;;;2.07;;
76262;SDS011;65080;50.908;6.916;2023-02-27T15:49:40;3.90;;;1.30;;
76262;SDS011;65080;50.908;6.916;2023-02-27T15:52:12;3.97;;;1.40;;